createdAt,value
2018-08-22T00:01:30.799Z,22.60
2018-08-22T00:03:59.604Z,22.50
2018-08-22T00:06:27.512Z,22.40
2018-08-22T00:08:55.449Z,22.30
2018-08-22T00:11:24.076Z,22.20
2018-08-22T00:13:52.781Z,22.20
2018-08-22T00:16:20.724Z,22.10
2018-08-22T00:18:49.657Z,22.00
2018-08-22T00:21:17.556Z,21.90
2018-08-22T00:23:45.439Z,21.80
2018-08-22T00:26:14.068Z,21.70
2018-08-22T00:28:42.535Z,21.60
2018-08-22T00:31:10.448Z,21.60
2018-08-22T00:33:38.999Z,21.60
2018-08-22T00:36:06.892Z,21.50
2018-08-22T00:38:35.774Z,21.40
2018-08-22T00:41:04.699Z,21.40
2018-08-22T00:43:32.617Z,21.30
2018-08-22T00:46:01.168Z,21.20
2018-08-22T00:48:29.752Z,21.10
2018-08-22T00:50:57.629Z,21.20
2018-08-22T00:53:25.541Z,21.20
2018-08-22T00:55:53.447Z,21.20
2018-08-22T00:58:21.371Z,21.00
2018-08-22T01:00:49.253Z,20.90
2018-08-22T01:03:17.718Z,20.90
2018-08-22T01:05:45.634Z,20.90
2018-08-22T01:08:13.512Z,20.80
2018-08-22T01:10:41.742Z,20.70
2018-08-22T01:13:09.760Z,20.50
2018-08-22T01:15:38.409Z,20.40
2018-08-22T01:18:06.317Z,20.50
2018-08-22T01:20:34.403Z,20.40
2018-08-22T01:23:02.277Z,20.40
2018-08-22T01:25:30.165Z,20.30
2018-08-22T01:27:58.683Z,20.30
2018-08-22T01:30:26.555Z,20.30
2018-08-22T01:32:54.530Z,20.20
2018-08-22T01:35:22.458Z,20.10
2018-08-22T01:37:50.377Z,20.00
2018-08-22T01:40:18.786Z,19.90
2018-08-22T01:42:46.680Z,19.80
2018-08-22T01:45:14.514Z,19.70
2018-08-22T01:47:42.414Z,19.60
2018-08-22T01:50:11.373Z,19.60
2018-08-22T01:52:39.315Z,19.60
2018-08-22T01:55:07.201Z,19.60
2018-08-22T01:57:35.799Z,19.60
2018-08-22T02:00:04.118Z,19.60
2018-08-22T02:02:32.758Z,19.60
2018-08-22T02:05:00.670Z,19.70
2018-08-22T02:07:29.560Z,19.60
2018-08-22T02:09:57.460Z,19.60
2018-08-22T02:12:25.328Z,19.60
2018-08-22T02:14:53.239Z,19.40
2018-08-22T02:17:21.129Z,19.40
2018-08-22T02:19:49.404Z,19.30
2018-08-22T02:22:18.019Z,19.20
2018-08-22T02:24:46.606Z,19.10
2018-08-22T02:27:14.477Z,19.00
2018-08-22T02:29:42.332Z,19.10
2018-08-22T02:32:10.946Z,19.10
2018-08-22T02:34:38.924Z,19.00
2018-08-22T02:37:07.411Z,18.90
2018-08-22T02:39:35.356Z,18.90
2018-08-22T02:42:03.585Z,18.90
2018-08-22T02:44:31.711Z,18.80
2018-08-22T02:46:59.649Z,18.70
2018-08-22T02:49:27.520Z,18.70
2018-08-22T02:51:55.401Z,18.60
2018-08-22T02:54:23.272Z,18.60
2018-08-22T02:56:51.127Z,18.70
2018-08-22T02:59:19.572Z,18.60
2018-08-22T03:01:47.504Z,18.70
2018-08-22T03:04:15.403Z,18.80
2018-08-22T03:06:43.455Z,18.70
2018-08-22T03:09:12.135Z,18.70
2018-08-22T03:11:40.065Z,18.70
2018-08-22T03:14:07.993Z,18.70
2018-08-22T03:16:36.496Z,18.70
2018-08-22T03:19:04.491Z,18.70
2018-08-22T03:21:32.414Z,18.60
2018-08-22T03:24:01.903Z,18.60
2018-08-22T03:26:30.186Z,18.60
2018-08-22T03:28:58.828Z,18.60
2018-08-22T03:31:26.796Z,18.50
2018-08-22T03:33:54.801Z,18.40
2018-08-22T03:36:23.305Z,18.40
2018-08-22T03:38:51.187Z,18.20
2018-08-22T03:41:19.088Z,18.00
2018-08-22T03:43:47.033Z,17.90
2018-08-22T03:46:15.605Z,17.80
2018-08-22T03:48:43.482Z,17.70
2018-08-22T03:51:11.343Z,17.70
2018-08-22T03:53:39.252Z,17.70
2018-08-22T03:56:07.561Z,17.70
2018-08-22T03:58:35.587Z,17.70
2018-08-22T04:01:03.541Z,17.70
2018-08-22T04:03:31.875Z,17.70
2018-08-22T04:05:59.781Z,17.70
2018-08-22T04:08:28.526Z,17.70
2018-08-22T04:10:56.503Z,17.70
2018-08-22T04:13:24.540Z,17.70
2018-08-22T04:15:52.473Z,17.60
2018-08-22T04:18:20.389Z,17.60
2018-08-22T04:20:48.885Z,17.60
2018-08-22T04:23:16.786Z,17.50
2018-08-22T04:25:45.048Z,17.40
2018-08-22T04:28:12.930Z,17.40
2018-08-22T04:30:41.293Z,17.30
2018-08-22T04:33:09.937Z,17.20
2018-08-22T04:35:37.989Z,17.20
2018-08-22T04:38:05.884Z,17.20
2018-08-22T04:40:33.772Z,17.20
2018-08-22T04:43:02.053Z,17.20
2018-08-22T04:45:30.983Z,17.30
2018-08-22T04:47:59.897Z,17.40
2018-08-22T04:50:27.800Z,17.50
2018-08-22T04:52:55.653Z,17.50
2018-08-22T04:55:23.576Z,17.60
2018-08-22T04:57:51.442Z,17.70
2018-08-22T05:00:19.392Z,17.60
2018-08-22T05:02:47.293Z,17.70
2018-08-22T05:05:15.630Z,17.80
2018-08-22T05:07:44.136Z,17.70
2018-08-22T05:10:12.039Z,17.70
2018-08-22T05:12:39.964Z,17.60
2018-08-22T05:15:08.377Z,17.60
2018-08-22T05:17:36.321Z,17.70
2018-08-22T05:20:04.772Z,17.80
2018-08-22T05:22:33.103Z,17.90
2018-08-22T05:25:00.968Z,18.10
2018-08-22T05:27:28.859Z,18.20
2018-08-22T05:29:56.811Z,18.30
2018-08-22T05:32:24.687Z,18.40
2018-08-22T05:34:53.251Z,18.50
2018-08-22T05:37:21.860Z,18.60
2018-08-22T05:39:49.798Z,18.70
2018-08-22T05:42:18.236Z,18.90
2018-08-22T05:44:46.105Z,19.00
2018-08-22T05:47:14.588Z,19.20
2018-08-22T05:49:43.106Z,19.40
2018-08-22T05:52:10.976Z,19.60
2018-08-22T05:54:39.591Z,19.70
2018-08-22T05:57:08.185Z,19.90
2018-08-22T05:59:36.566Z,20.10
2018-08-22T06:02:04.578Z,20.60
2018-08-22T06:04:32.482Z,20.90
2018-08-22T06:07:00.945Z,21.20
2018-08-22T06:09:28.871Z,21.60
2018-08-22T06:11:57.503Z,22.00
2018-08-22T06:14:25.423Z,22.30
2018-08-22T06:16:53.340Z,22.60
2018-08-22T06:19:21.259Z,23.00
2018-08-22T06:21:49.171Z,23.20
2018-08-22T06:24:17.714Z,23.40
2018-08-22T06:26:46.480Z,23.80
2018-08-22T06:29:14.405Z,24.00
2018-08-22T06:31:42.356Z,24.10
2018-08-22T06:34:10.253Z,24.40
2018-08-22T06:36:38.876Z,24.50
2018-08-22T06:39:08.692Z,24.70
2018-08-22T06:41:36.766Z,24.90
2018-08-22T06:44:04.788Z,25.10
2018-08-22T06:46:32.639Z,25.00
2018-08-22T06:49:01.509Z,25.00
2018-08-22T06:51:29.779Z,25.20
2018-08-22T06:53:57.664Z,25.30
2018-08-22T06:56:26.392Z,25.40
2018-08-22T06:58:54.296Z,25.50
2018-08-22T07:01:22.579Z,25.50
2018-08-22T07:03:50.464Z,25.50
2018-08-22T07:06:18.350Z,25.50
2018-08-22T07:08:46.789Z,25.40
2018-08-22T07:11:14.736Z,25.50
2018-08-22T07:13:42.658Z,25.30
2018-08-22T07:16:10.529Z,25.30
2018-08-22T07:18:39.197Z,25.20
2018-08-22T07:21:08.392Z,25.10
2018-08-22T07:23:36.357Z,24.80
2018-08-22T07:26:04.279Z,24.90
2018-08-22T07:28:32.151Z,24.90
2018-08-22T07:31:00.098Z,24.90
2018-08-22T07:33:28.033Z,25.00
2018-08-22T07:35:55.945Z,25.20
2018-08-22T07:38:23.863Z,25.30
2018-08-22T07:40:51.755Z,25.50
2018-08-22T07:43:19.717Z,25.70
2018-08-22T07:45:47.658Z,25.80
2018-08-22T07:48:16.207Z,26.10
2018-08-22T07:50:44.729Z,26.30
2018-08-22T07:53:12.714Z,26.30
2018-08-22T07:55:42.074Z,26.40
2018-08-22T07:58:10.616Z,26.40
2018-08-22T08:00:38.530Z,26.50
2018-08-22T08:03:07.678Z,26.40
2018-08-22T08:05:35.804Z,26.40
2018-08-22T08:08:04.087Z,26.50
2018-08-22T08:10:35.136Z,26.50
2018-08-22T08:13:04.172Z,26.50
2018-08-22T08:15:32.108Z,26.60
2018-08-22T08:18:00.008Z,26.80
2018-08-22T08:20:27.929Z,26.80
2018-08-22T08:22:55.862Z,27.00
2018-08-22T08:25:24.448Z,27.10
2018-08-22T08:27:52.966Z,27.20
2018-08-22T08:30:20.923Z,27.30
2018-08-22T08:32:49.799Z,27.30
2018-08-22T08:35:17.736Z,27.40
2018-08-22T08:37:45.676Z,27.40
2018-08-22T08:40:13.656Z,27.50
2018-08-22T08:42:42.241Z,27.70
2018-08-22T08:45:11.008Z,27.70
2018-08-22T08:47:38.931Z,27.90
2018-08-22T08:50:07.436Z,27.90
2018-08-22T08:52:35.532Z,28.10
2018-08-22T08:55:03.545Z,28.00
2018-08-22T08:57:32.109Z,27.90
2018-08-22T09:00:00.441Z,28.00
2018-08-22T09:02:28.368Z,28.00
2018-08-22T09:04:56.272Z,28.00
2018-08-22T09:07:24.152Z,28.30
2018-08-22T09:09:52.097Z,28.20
2018-08-22T09:12:20.126Z,28.40
2018-08-22T09:14:47.980Z,28.30
2018-08-22T09:17:16.018Z,28.40
2018-08-22T09:19:43.991Z,28.50
2018-08-22T09:22:13.103Z,28.70
2018-08-22T09:24:43.066Z,28.90
2018-08-22T09:27:10.953Z,29.20
2018-08-22T09:29:38.878Z,29.50
2018-08-22T09:32:07.072Z,29.50
2018-08-22T09:34:35.780Z,29.50
2018-08-22T09:37:04.053Z,29.80
2018-08-22T09:39:32.112Z,29.80
2018-08-22T09:42:00.500Z,29.90
2018-08-22T09:44:28.514Z,30.00
2018-08-22T09:46:56.972Z,30.00
2018-08-22T09:49:24.910Z,30.10
2018-08-22T09:51:52.819Z,30.00
2018-08-22T09:54:20.717Z,30.10
2018-08-22T09:56:48.608Z,30.10
2018-08-22T09:59:16.518Z,30.30
2018-08-22T10:01:44.909Z,30.40
2018-08-22T10:04:13.099Z,30.40
2018-08-22T10:06:43.353Z,30.10
2018-08-22T10:09:14.109Z,30.00
2018-08-22T10:11:42.337Z,30.20
2018-08-22T10:14:10.501Z,30.00
2018-08-22T10:16:38.434Z,29.90
2018-08-22T10:19:07.352Z,29.50
2018-08-22T10:21:36.416Z,29.50
2018-08-22T10:24:04.476Z,29.60
2018-08-22T10:26:32.504Z,29.70
2018-08-22T10:29:00.404Z,29.80
2018-08-22T10:31:29.284Z,29.30
2018-08-22T10:33:57.655Z,29.50
2018-08-22T10:36:25.641Z,29.90
2018-08-22T10:38:53.589Z,30.20
2018-08-22T10:41:21.517Z,30.40
2018-08-22T10:43:49.465Z,30.40
2018-08-22T10:46:17.407Z,30.50
2018-08-22T10:48:46.056Z,30.30
2018-08-22T10:51:14.002Z,30.40
2018-08-22T10:53:42.401Z,30.70
2018-08-22T10:56:11.123Z,31.10
2018-08-22T10:58:39.024Z,31.30
2018-08-22T11:01:06.936Z,31.40
2018-08-22T11:03:34.816Z,31.40
2018-08-22T11:06:02.719Z,31.10
2018-08-22T11:08:30.614Z,30.70
2018-08-22T11:10:58.498Z,30.80
2018-08-22T11:13:26.457Z,30.90
2018-08-22T11:15:55.205Z,31.00
2018-08-22T11:18:23.216Z,31.00
2018-08-22T11:20:51.098Z,31.10
2018-08-22T11:23:31.147Z,31.30
2018-08-22T11:26:11.017Z,31.50
2018-08-22T11:28:50.223Z,31.50
2018-08-22T11:31:29.778Z,31.40
2018-08-22T11:34:09.200Z,31.50
2018-08-22T11:36:36.270Z,31.60
2018-08-22T11:39:06.104Z,31.70
2018-08-22T11:41:34.041Z,31.90
2018-08-22T11:44:01.944Z,31.90
2018-08-22T11:46:29.860Z,31.90
2018-08-22T12:13:02.736Z,32.10
2018-08-22T12:15:30.853Z,32.10
2018-08-22T12:17:59.394Z,32.40
2018-08-22T12:20:27.774Z,32.60
2018-08-22T12:22:55.712Z,32.50
2018-08-22T12:25:23.548Z,32.60
2018-08-22T12:27:52.432Z,32.10
2018-08-22T12:30:20.639Z,31.80
2018-08-22T12:32:48.951Z,31.70
2018-08-22T12:35:17.021Z,31.70
2018-08-22T12:37:44.935Z,31.90
2018-08-22T12:40:12.873Z,32.10
2018-08-22T12:42:40.779Z,32.20
2018-08-22T12:45:09.110Z,32.20
2018-08-22T12:47:37.010Z,32.10
2018-08-22T12:50:05.246Z,31.80
2018-08-22T12:52:33.163Z,32.00
2018-08-22T12:55:01.053Z,32.40
2018-08-22T12:57:28.957Z,32.70
2018-08-22T12:59:57.229Z,32.60
2018-08-22T13:02:25.132Z,32.60
2018-08-22T13:04:53.040Z,32.60
2018-08-22T13:07:21.012Z,32.50
2018-08-22T13:09:49.736Z,32.40
2018-08-22T13:12:17.719Z,32.50
2018-08-22T13:14:45.731Z,32.70
2018-08-22T13:17:14.359Z,32.60
2018-08-22T13:19:42.345Z,32.50
2018-08-22T13:22:10.490Z,32.40
2018-08-22T13:24:38.602Z,32.40
2018-08-22T13:27:07.085Z,32.20
2018-08-22T13:29:35.005Z,32.10
2018-08-22T13:32:02.938Z,32.10
2018-08-22T13:34:30.880Z,32.20
2018-08-22T13:36:58.756Z,32.20
2018-08-22T13:39:26.683Z,32.40
2018-08-22T13:41:54.584Z,32.30
2018-08-22T13:44:22.484Z,32.40
2018-08-22T13:46:50.369Z,32.50
2018-08-22T13:49:18.266Z,32.60
2018-08-22T13:51:46.960Z,32.70
2018-08-22T13:54:14.936Z,32.80
2018-08-22T13:56:42.844Z,33.00
2018-08-22T13:59:10.747Z,33.10
2018-08-22T14:01:38.667Z,33.10
2018-08-22T14:04:06.832Z,33.20
2018-08-22T14:06:34.727Z,33.20
2018-08-22T14:09:02.795Z,33.30
2018-08-22T14:11:30.834Z,33.30
2018-08-22T14:13:58.748Z,33.00
2018-08-22T14:16:26.607Z,32.60
2018-08-22T14:18:54.495Z,32.30
2018-08-22T14:21:22.970Z,32.30
2018-08-22T14:23:50.870Z,32.10
2018-08-22T14:26:18.780Z,32.20
2018-08-22T14:28:46.680Z,32.50
2018-08-22T14:31:15.164Z,32.50
2018-08-22T14:33:43.117Z,32.50
2018-08-22T14:36:11.060Z,32.70
2018-08-22T14:38:38.983Z,32.80
2018-08-22T14:41:06.894Z,32.60
2018-08-22T14:43:35.083Z,32.60
2018-08-22T14:46:03.006Z,32.60
2018-08-22T14:48:30.945Z,32.70
2018-08-22T14:50:58.938Z,32.60
2018-08-22T14:53:26.909Z,32.60
2018-08-22T14:55:54.815Z,32.60
2018-08-22T14:58:22.838Z,32.60
2018-08-22T15:00:50.915Z,32.60
2018-08-22T15:03:19.151Z,32.60
2018-08-22T15:05:46.772Z,32.70
2018-08-22T15:08:14.644Z,32.50
2018-08-22T15:10:45.837Z,32.60
2018-08-22T15:13:13.741Z,32.70
2018-08-22T15:15:41.664Z,32.70
2018-08-22T15:18:09.559Z,32.60
2018-08-22T15:20:37.475Z,32.60
2018-08-22T15:23:05.790Z,32.60
2018-08-22T15:25:34.162Z,32.60
2018-08-22T15:28:02.338Z,32.60
2018-08-22T15:30:30.204Z,32.40
2018-08-22T15:32:58.127Z,32.40
2018-08-22T15:35:26.053Z,32.50
2018-08-22T15:37:53.990Z,32.50
2018-08-22T15:40:21.917Z,32.50
2018-08-22T15:42:50.120Z,32.40
2018-08-22T15:45:18.044Z,32.50
2018-08-22T15:47:46.145Z,32.50
2018-08-22T15:50:13.959Z,32.50
2018-08-22T15:52:41.906Z,32.50
2018-08-22T15:55:11.683Z,32.50
2018-08-22T15:57:57.244Z,32.50
2018-08-22T16:00:47.953Z,32.40
2018-08-22T16:03:15.870Z,32.40
2018-08-22T16:05:44.680Z,32.20
2018-08-22T16:08:14.626Z,32.20
2018-08-22T16:10:42.605Z,32.20
2018-08-22T16:13:19.403Z,32.10
2018-08-22T16:15:48.982Z,32.10
2018-08-22T16:18:17.664Z,32.10
2018-08-22T16:20:53.959Z,32.20
2018-08-22T16:23:23.926Z,32.10
2018-08-22T16:25:52.735Z,32.10
2018-08-22T16:28:21.044Z,32.00
2018-08-22T16:30:57.110Z,31.90
2018-08-22T16:33:21.622Z,32.00
2018-08-22T16:35:50.504Z,32.00
2018-08-22T16:38:18.482Z,31.90
2018-08-22T16:40:50.611Z,32.00
2018-08-22T16:43:45.933Z,32.00
2018-08-22T16:46:15.406Z,31.90
2018-08-22T16:48:46.840Z,31.80
2018-08-22T16:51:15.374Z,31.70
2018-08-22T16:53:49.122Z,31.70
2018-08-22T16:56:17.803Z,31.70
2018-08-22T16:58:49.161Z,31.70
2018-08-22T17:01:17.032Z,31.70
2018-08-22T17:03:44.897Z,31.70
2018-08-22T17:06:13.574Z,31.60
2018-08-22T17:08:42.165Z,31.60
2018-08-22T17:11:11.470Z,31.50
2018-08-22T17:13:48.887Z,31.50
2018-08-22T17:16:17.378Z,31.50
2018-08-22T17:18:45.412Z,31.40
2018-08-22T17:21:13.320Z,31.40
2018-08-22T17:23:41.671Z,31.30
2018-08-22T17:26:12.201Z,31.20
2018-08-22T17:28:42.987Z,31.10
2018-08-22T17:31:11.617Z,31.00
2018-08-22T17:33:40.923Z,30.90
2018-08-22T17:36:10.608Z,30.80
2018-08-22T17:38:41.861Z,30.70
2018-08-22T17:41:09.804Z,30.60
2018-08-22T17:43:56.891Z,30.50
2018-08-22T17:46:26.796Z,30.50
2018-08-22T17:48:55.047Z,30.40
2018-08-22T17:51:23.119Z,30.30
2018-08-22T17:53:51.043Z,30.20
2018-08-22T17:56:20.605Z,30.20
2018-08-22T17:58:49.612Z,30.10
2018-08-22T18:01:17.637Z,30.10
2018-08-22T18:03:46.215Z,30.00
2018-08-22T18:06:14.160Z,29.90
2018-08-22T18:08:42.174Z,29.70
2018-08-22T18:11:10.099Z,29.70
2018-08-22T18:13:38.783Z,29.50
2018-08-22T18:16:06.708Z,29.50
2018-08-22T18:18:34.662Z,29.40
2018-08-22T18:21:02.616Z,29.30
2018-08-22T18:23:30.561Z,29.10
2018-08-22T18:25:58.456Z,29.10
2018-08-22T18:28:26.595Z,29.00
2018-08-22T18:30:54.544Z,28.90
2018-08-22T18:33:22.485Z,28.90
2018-08-22T18:35:50.471Z,28.80
2018-08-22T18:38:18.541Z,28.80
2018-08-22T18:40:59.037Z,28.70
2018-08-22T18:43:33.998Z,28.60
2018-08-22T18:46:05.501Z,28.60
2018-08-22T18:48:34.282Z,28.50
2018-08-22T18:51:03.135Z,28.50
2018-08-22T18:53:31.259Z,28.40
2018-08-22T18:56:11.111Z,28.40
2018-08-22T18:58:39.467Z,28.40
2018-08-22T19:01:08.633Z,28.40
2018-08-22T19:03:36.650Z,28.30
2018-08-22T19:06:05.156Z,28.40
2018-08-22T19:08:35.861Z,28.30
2018-08-22T19:11:03.903Z,28.20
2018-08-22T19:13:31.915Z,28.30
2018-08-22T19:16:01.190Z,28.30
2018-08-22T19:18:29.241Z,28.30
2018-08-22T19:20:59.095Z,28.30
2018-08-22T19:23:27.660Z,28.30
2018-08-22T19:25:56.286Z,28.30
2018-08-22T19:28:24.244Z,28.10
2018-08-22T19:30:52.186Z,27.80
2018-08-22T19:33:24.116Z,27.50
2018-08-22T19:35:52.085Z,27.20
2018-08-22T19:38:25.136Z,26.90
2018-08-22T19:40:54.147Z,26.60
2018-08-22T19:43:22.062Z,26.40
2018-08-22T19:45:50.445Z,26.40
2018-08-22T19:48:18.741Z,26.30
2018-08-22T19:50:46.685Z,26.10
2018-08-22T19:53:15.260Z,26.10
2018-08-22T19:55:43.932Z,26.00
2018-08-22T19:58:15.457Z,25.80
2018-08-22T20:00:43.370Z,25.80
2018-08-22T20:03:14.327Z,25.60
2018-08-22T20:05:52.415Z,25.50
2018-08-22T20:08:26.491Z,25.50
2018-08-22T20:10:54.730Z,25.40
2018-08-22T20:13:22.795Z,25.50
2018-08-22T20:15:50.709Z,25.30
2018-08-22T20:18:19.317Z,25.20
2018-08-22T20:20:47.736Z,25.10
2018-08-22T20:23:15.669Z,25.10
2018-08-22T20:25:44.354Z,24.90
2018-08-22T20:28:12.360Z,24.90
2018-08-22T20:30:40.281Z,24.90
2018-08-22T20:33:09.377Z,24.80
2018-08-22T20:35:40.535Z,24.80
2018-08-22T20:38:10.908Z,24.70
2018-08-22T20:40:39.524Z,24.60
2018-08-22T20:43:15.069Z,24.50
2018-08-22T20:45:43.768Z,24.40
2018-08-22T20:48:13.451Z,24.40
2018-08-22T20:50:42.803Z,24.30
2018-08-22T20:53:12.195Z,24.20
2018-08-22T20:55:40.204Z,24.10
2018-08-22T20:58:14.717Z,24.10
2018-08-22T21:00:43.244Z,24.00
2018-08-22T21:03:11.127Z,23.90
2018-08-22T21:05:39.514Z,23.90
2018-08-22T21:08:07.380Z,23.80
2018-08-22T21:10:36.914Z,23.80
2018-08-22T21:13:11.604Z,23.70
2018-08-22T21:15:39.494Z,23.60
2018-08-22T21:18:09.279Z,23.60
2018-08-22T21:20:37.794Z,23.50
2018-08-22T21:23:05.694Z,23.40
2018-08-22T21:25:34.519Z,23.30
2018-08-22T21:28:02.410Z,23.20
2018-08-22T21:30:30.416Z,23.30
2018-08-22T21:32:58.337Z,23.10
2018-08-22T21:35:26.245Z,23.00
2018-08-22T21:38:28.540Z,22.90
2018-08-22T21:40:56.491Z,22.90
2018-08-22T21:43:24.361Z,22.90
2018-08-22T21:45:52.795Z,22.90
2018-08-22T21:48:24.111Z,23.00
2018-08-22T21:50:52.041Z,23.10
2018-08-22T21:53:20.723Z,23.10
2018-08-22T21:55:50.574Z,23.10
2018-08-22T21:58:18.463Z,23.10
2018-08-22T22:00:46.462Z,23.00
2018-08-22T22:03:18.898Z,22.90
2018-08-22T22:06:01.807Z,22.80
2018-08-22T22:08:30.343Z,22.80
2018-08-22T22:11:06.719Z,22.80
2018-08-22T22:13:34.775Z,22.70
2018-08-22T22:16:04.309Z,22.50
2018-08-22T22:18:33.369Z,22.40
2018-08-22T22:21:09.966Z,22.30
2018-08-22T22:23:45.813Z,22.20
2018-08-22T22:26:14.851Z,22.10
2018-08-22T22:28:42.772Z,22.10
2018-08-22T22:31:14.028Z,22.00
2018-08-22T22:33:51.491Z,22.00
2018-08-22T22:36:19.472Z,22.20
2018-08-22T22:38:47.330Z,22.30
2018-08-22T22:41:15.243Z,22.40
2018-08-22T22:43:43.117Z,22.50
2018-08-22T22:46:11.754Z,22.30
2018-08-22T22:48:41.259Z,22.20
2018-08-22T22:51:09.644Z,22.10
2018-08-22T22:53:37.697Z,22.20
2018-08-22T22:56:06.226Z,22.00
2018-08-22T22:58:34.979Z,21.90
2018-08-22T23:01:02.893Z,21.80
2018-08-22T23:03:31.564Z,21.70
2018-08-22T23:05:59.471Z,21.60
2018-08-22T23:08:28.088Z,21.60
2018-08-22T23:10:56.550Z,21.40
2018-08-22T23:13:25.473Z,21.20
2018-08-22T23:15:53.404Z,21.20
2018-08-22T23:18:21.867Z,21.20
2018-08-22T23:20:50.218Z,21.20
2018-08-22T23:23:36.555Z,21.10
2018-08-22T23:26:21.923Z,21.10
2018-08-22T23:28:49.812Z,21.10
2018-08-22T23:31:19.061Z,21.10
2018-08-22T23:33:46.947Z,21.00
2018-08-22T23:36:14.998Z,21.00
2018-08-22T23:38:42.909Z,21.10
2018-08-22T23:41:11.138Z,21.10
2018-08-22T23:43:44.680Z,21.10
2018-08-22T23:46:13.507Z,21.10
2018-08-22T23:48:42.059Z,21.00
2018-08-22T23:51:11.205Z,20.90
2018-08-22T23:53:44.622Z,20.80
2018-08-22T23:56:23.100Z,20.70
2018-08-22T23:58:52.653Z,20.60
